createdAt,value
2023-05-17T00:00:37.588Z,8.40
2023-05-17T00:03:05.603Z,8.40
2023-05-17T00:05:33.515Z,8.40
2023-05-17T00:08:01.777Z,8.30
2023-05-17T00:10:29.730Z,8.30
2023-05-17T00:12:59.011Z,8.30
2023-05-17T00:15:27.142Z,8.40
2023-05-17T00:17:55.551Z,8.40
2023-05-17T00:20:23.652Z,8.40
2023-05-17T00:22:51.558Z,8.40
2023-05-17T00:25:19.484Z,8.40
2023-05-17T00:27:47.825Z,8.40
2023-05-17T00:30:17.120Z,8.40
2023-05-17T00:32:46.774Z,8.40
2023-05-17T00:35:15.002Z,8.40
2023-05-17T00:37:47.620Z,8.40
2023-05-17T00:40:16.680Z,8.40
2023-05-17T00:42:44.707Z,8.40
2023-05-17T00:45:12.898Z,8.40
2023-05-17T00:47:42.897Z,8.40
2023-05-17T00:50:12.827Z,8.40
2023-05-17T00:52:41.236Z,8.40
2023-05-17T00:55:10.123Z,8.40
2023-05-17T00:57:39.199Z,8.50
2023-05-17T01:00:09.103Z,8.50
2023-05-17T01:02:37.263Z,8.40
2023-05-17T01:05:07.793Z,8.40
2023-05-17T01:07:36.646Z,8.40
2023-05-17T01:10:05.188Z,8.50
2023-05-17T01:12:57.778Z,8.40
2023-05-17T01:15:32.809Z,8.40
2023-05-17T01:18:12.788Z,8.50
2023-05-17T01:20:47.214Z,8.40
2023-05-17T01:23:43.032Z,8.40
2023-05-17T01:26:17.732Z,8.40
2023-05-17T01:28:53.264Z,8.40
2023-05-17T01:31:21.888Z,8.40
2023-05-17T01:33:49.962Z,8.40
2023-05-17T01:36:17.954Z,8.30
2023-05-17T01:38:45.882Z,8.30
2023-05-17T01:41:22.997Z,8.30
2023-05-17T01:44:03.893Z,8.30
2023-05-17T01:46:40.367Z,8.20
2023-05-17T01:49:19.127Z,8.30
2023-05-17T01:51:51.728Z,8.30
2023-05-17T01:54:24.660Z,8.30
2023-05-17T01:56:59.832Z,8.30
2023-05-17T01:59:32.461Z,8.30
2023-05-17T02:02:06.207Z,8.40
2023-05-17T02:04:34.449Z,8.30
2023-05-17T02:07:03.345Z,8.30
2023-05-17T02:09:31.674Z,8.30
2023-05-17T02:11:59.917Z,8.20
2023-05-17T02:14:29.151Z,8.20
2023-05-17T02:16:57.945Z,8.20
2023-05-17T02:19:26.264Z,8.20
2023-05-17T02:21:54.188Z,8.20
2023-05-17T02:24:23.486Z,8.20
2023-05-17T02:26:51.408Z,8.20
2023-05-17T02:29:19.377Z,8.20
2023-05-17T02:31:48.641Z,8.20
2023-05-17T02:34:18.194Z,8.10
2023-05-17T02:36:46.115Z,8.10
2023-05-17T02:39:14.151Z,8.10
2023-05-17T02:41:42.392Z,8.10
2023-05-17T02:44:10.697Z,8.10
2023-05-17T02:46:38.768Z,8.10
2023-05-17T02:49:08.026Z,8.00
2023-05-17T02:51:38.705Z,8.10
2023-05-17T02:54:06.867Z,8.10
2023-05-17T02:56:35.035Z,8.00
2023-05-17T02:59:03.083Z,8.10
2023-05-17T03:01:31.545Z,8.00
2023-05-17T03:03:59.696Z,8.00
2023-05-17T03:06:29.908Z,8.00
2023-05-17T03:08:57.812Z,8.10
2023-05-17T03:11:25.917Z,8.00
2023-05-17T03:13:56.108Z,8.00
2023-05-17T03:16:27.526Z,8.10
2023-05-17T03:18:55.778Z,8.10
2023-05-17T03:21:24.372Z,8.00
2023-05-17T03:23:53.637Z,8.10
2023-05-17T03:26:21.573Z,8.30
2023-05-17T03:28:52.820Z,8.30
2023-05-17T03:31:20.880Z,8.30
2023-05-17T03:33:48.983Z,8.40
2023-05-17T03:36:17.184Z,8.50
2023-05-17T03:38:45.332Z,8.40
2023-05-17T03:41:14.770Z,8.50
2023-05-17T03:43:43.266Z,8.50
2023-05-17T03:46:14.528Z,8.60
2023-05-17T03:48:42.516Z,8.80
2023-05-17T03:51:11.862Z,8.90
2023-05-17T03:53:43.190Z,9.00
2023-05-17T03:56:11.536Z,9.10
2023-05-17T03:58:40.886Z,9.10
2023-05-17T04:01:08.847Z,9.10
2023-05-17T04:03:37.565Z,9.20
2023-05-17T04:06:07.332Z,9.30
2023-05-17T04:08:39.101Z,9.30
2023-05-17T04:11:12.955Z,9.50
2023-05-17T04:13:43.458Z,9.60
2023-05-17T04:16:11.702Z,9.80
2023-05-17T04:18:42.542Z,10.00
2023-05-17T04:21:11.035Z,10.20
2023-05-17T04:23:40.686Z,10.50
2023-05-17T04:26:09.961Z,10.80
2023-05-17T04:28:42.171Z,11.20
2023-05-17T04:31:11.716Z,11.60
2023-05-17T04:33:39.676Z,11.90
2023-05-17T04:36:09.269Z,12.40
2023-05-17T04:38:38.944Z,13.10
2023-05-17T04:41:09.378Z,13.50
2023-05-17T04:43:39.256Z,13.20
2023-05-17T04:46:13.267Z,12.90
2023-05-17T04:48:42.111Z,12.70
2023-05-17T04:51:11.043Z,12.50
2023-05-17T04:53:39.006Z,12.40
2023-05-17T04:56:11.757Z,12.30
2023-05-17T04:58:39.727Z,12.40
2023-05-17T05:01:08.105Z,12.60
2023-05-17T05:03:37.930Z,12.90
2023-05-17T05:06:08.888Z,13.10
2023-05-17T05:08:37.600Z,13.00
2023-05-17T05:11:07.823Z,12.90
2023-05-17T05:13:38.214Z,12.50
2023-05-17T05:16:08.667Z,12.20
2023-05-17T05:18:39.357Z,12.00
2023-05-17T05:21:07.564Z,11.70
2023-05-17T05:23:35.963Z,11.60
2023-05-17T05:26:04.031Z,11.40
2023-05-17T05:28:33.532Z,11.20
2023-05-17T05:31:02.008Z,11.40
2023-05-17T05:33:37.295Z,11.80
2023-05-17T05:36:07.917Z,12.10
2023-05-17T05:38:36.858Z,12.00
2023-05-17T05:41:04.940Z,11.80
2023-05-17T05:43:33.356Z,11.40
2023-05-17T05:46:01.533Z,11.30
2023-05-17T05:48:29.614Z,11.40
2023-05-17T05:50:57.786Z,11.40
2023-05-17T05:53:27.237Z,11.40
2023-05-17T05:55:57.167Z,11.20
2023-05-17T05:58:25.447Z,11.20
2023-05-17T06:00:53.604Z,11.50
2023-05-17T06:03:21.791Z,11.30
2023-05-17T06:05:50.296Z,11.20
2023-05-17T06:08:18.486Z,11.10
2023-05-17T06:10:47.782Z,10.90
2023-05-17T06:13:15.828Z,10.80
2023-05-17T06:15:43.773Z,10.80
2023-05-17T06:18:12.242Z,10.50
2023-05-17T06:20:40.272Z,10.40
2023-05-17T06:23:08.282Z,10.50
2023-05-17T06:25:36.353Z,11.30
2023-05-17T06:28:06.691Z,12.10
2023-05-17T06:30:34.644Z,12.70
2023-05-17T06:33:05.848Z,12.60
2023-05-17T06:35:43.813Z,13.20
2023-05-17T06:38:21.864Z,13.80
2023-05-17T06:40:53.786Z,13.60
2023-05-17T06:43:23.538Z,13.10
2023-05-17T06:45:51.632Z,13.10
2023-05-17T06:48:20.119Z,13.60
2023-05-17T06:50:48.323Z,13.80
2023-05-17T06:53:16.322Z,14.00
2023-05-17T06:55:44.653Z,14.60
2023-05-17T06:58:13.067Z,15.20
2023-05-17T07:00:42.712Z,15.30
2023-05-17T07:03:11.092Z,14.90
2023-05-17T07:05:39.078Z,14.20
2023-05-17T07:08:07.032Z,13.40
2023-05-17T07:10:35.053Z,13.00
2023-05-17T07:13:02.996Z,13.00
2023-05-17T07:15:31.583Z,13.40
2023-05-17T07:18:01.219Z,14.00
2023-05-17T07:20:29.471Z,14.30
2023-05-17T07:22:57.727Z,14.20
2023-05-17T07:25:25.984Z,13.90
2023-05-17T07:27:54.039Z,13.50
2023-05-17T07:30:22.280Z,13.30
2023-05-17T07:32:50.387Z,13.10
2023-05-17T07:35:26.270Z,13.00
2023-05-17T07:37:54.273Z,12.80
2023-05-17T07:40:22.544Z,12.50
2023-05-17T07:42:50.521Z,12.30
2023-05-17T07:45:20.044Z,12.20
2023-05-17T07:47:48.158Z,12.00
2023-05-17T07:50:16.281Z,12.00
2023-05-17T07:52:45.548Z,12.20
2023-05-17T07:55:16.635Z,12.70
2023-05-17T07:57:47.361Z,13.40
2023-05-17T08:00:19.239Z,14.00
2023-05-17T08:02:47.396Z,14.10
2023-05-17T08:05:15.745Z,13.90
2023-05-17T08:07:46.643Z,13.60
2023-05-17T08:10:15.014Z,13.40
2023-05-17T08:12:43.016Z,13.20
2023-05-17T08:15:11.725Z,13.00
2023-05-17T08:17:39.801Z,13.20
2023-05-17T08:20:10.004Z,13.70
2023-05-17T08:22:38.414Z,14.30
2023-05-17T08:25:08.479Z,14.30
2023-05-17T08:27:36.704Z,14.20
2023-05-17T08:30:08.978Z,14.20
2023-05-17T08:32:39.606Z,14.40
2023-05-17T08:35:08.488Z,14.50
2023-05-17T08:37:36.865Z,14.40
2023-05-17T08:40:08.301Z,14.40
2023-05-17T08:42:37.989Z,14.20
2023-05-17T08:45:10.417Z,14.10
2023-05-17T08:47:40.572Z,14.30
2023-05-17T08:50:09.753Z,14.20
2023-05-17T08:52:40.431Z,14.00
2023-05-17T08:55:11.246Z,13.80
2023-05-17T08:57:40.438Z,13.60
2023-05-17T09:00:14.426Z,13.80
2023-05-17T09:02:43.970Z,13.80
2023-05-17T09:05:13.742Z,13.70
2023-05-17T09:07:42.312Z,13.50
2023-05-17T09:10:13.595Z,13.50
2023-05-17T09:12:42.316Z,13.70
2023-05-17T09:15:18.254Z,14.10
2023-05-17T09:17:54.289Z,14.10
2023-05-17T09:20:34.078Z,14.30
2023-05-17T09:23:02.821Z,14.50
2023-05-17T09:25:32.596Z,14.60
2023-05-17T09:28:03.751Z,14.40
2023-05-17T09:30:33.583Z,14.60
2023-05-17T09:33:07.959Z,14.60
2023-05-17T09:35:37.797Z,14.60
2023-05-17T09:38:09.288Z,14.60
2023-05-17T09:40:44.012Z,14.70
2023-05-17T09:43:13.458Z,14.80
2023-05-17T09:45:41.858Z,14.80
2023-05-17T09:48:14.919Z,14.60
2023-05-17T09:50:47.182Z,14.40
2023-05-17T09:53:25.992Z,14.50
2023-05-17T09:55:58.576Z,14.80
2023-05-17T09:58:28.758Z,15.20
2023-05-17T10:01:01.712Z,15.10
2023-05-17T10:03:35.580Z,15.00
2023-05-17T10:06:07.513Z,15.00
2023-05-17T10:08:36.600Z,15.30
2023-05-17T10:11:11.160Z,15.20
2023-05-17T10:13:48.771Z,15.10
2023-05-17T10:16:18.826Z,15.20
2023-05-17T10:18:48.580Z,15.50
2023-05-17T10:21:17.986Z,15.60
2023-05-17T10:23:47.971Z,15.60
2023-05-17T10:26:18.001Z,15.30
2023-05-17T10:28:47.288Z,14.80
2023-05-17T10:31:16.925Z,14.40
2023-05-17T10:33:48.533Z,14.50
2023-05-17T10:36:18.919Z,14.80
2023-05-17T10:38:47.205Z,15.00
2023-05-17T10:41:18.612Z,15.20
2023-05-17T10:43:48.162Z,15.20
2023-05-17T10:46:21.256Z,15.10
2023-05-17T10:48:51.355Z,14.90
2023-05-17T10:51:25.019Z,14.90
2023-05-17T10:54:09.792Z,15.10
2023-05-17T10:56:42.595Z,15.10
2023-05-17T10:59:17.540Z,15.00
2023-05-17T11:02:00.306Z,14.90
2023-05-17T11:04:33.918Z,14.80
2023-05-17T11:07:27.209Z,14.90
2023-05-17T11:09:57.380Z,14.90
2023-05-17T11:12:40.447Z,15.10
2023-05-17T11:15:11.365Z,15.40
2023-05-17T11:17:51.506Z,15.30
2023-05-17T11:20:36.898Z,15.30
2023-05-17T11:23:07.669Z,15.50
2023-05-17T11:25:38.325Z,15.60
2023-05-17T11:28:20.342Z,15.70
2023-05-17T11:30:51.797Z,15.00
2023-05-17T11:33:33.123Z,14.80
2023-05-17T11:36:08.121Z,15.00
2023-05-17T11:38:36.371Z,15.40
2023-05-17T11:43:53.408Z,15.70
2023-05-17T11:46:23.811Z,15.50
2023-05-17T11:48:53.615Z,15.40
2023-05-17T11:51:25.424Z,15.30
2023-05-17T11:53:56.030Z,15.00
2023-05-17T11:56:35.555Z,14.80
2023-05-17T11:59:11.583Z,14.40
2023-05-17T12:01:47.120Z,14.20
2023-05-17T12:04:23.568Z,14.30
2023-05-17T12:06:51.937Z,14.40
2023-05-17T12:09:21.116Z,14.40
2023-05-17T12:11:49.253Z,14.70
2023-05-17T12:14:20.308Z,14.90
2023-05-17T12:16:53.951Z,15.10
2023-05-17T12:19:25.104Z,15.10
2023-05-17T12:21:53.458Z,15.20
2023-05-17T12:24:21.421Z,15.30
2023-05-17T12:26:49.746Z,15.30
2023-05-17T12:29:23.277Z,15.40
2023-05-17T12:31:54.166Z,15.50
2023-05-17T12:34:23.217Z,15.40
2023-05-17T12:36:52.680Z,15.30
2023-05-17T12:39:23.877Z,15.00
2023-05-17T12:41:54.091Z,15.00
2023-05-17T12:44:23.813Z,15.20
2023-05-17T12:46:53.974Z,15.50
2023-05-17T12:49:23.061Z,15.60
2023-05-17T12:51:51.205Z,15.50
2023-05-17T12:54:28.992Z,15.20
2023-05-17T12:56:58.090Z,14.90
2023-05-17T12:59:29.074Z,14.80
2023-05-17T13:02:00.687Z,14.70
2023-05-17T13:04:38.846Z,14.80
2023-05-17T13:07:07.237Z,14.70
2023-05-17T13:09:36.515Z,14.70
2023-05-17T13:12:08.094Z,14.70
2023-05-17T13:14:45.610Z,14.60
2023-05-17T13:17:20.340Z,14.60
2023-05-17T13:19:48.788Z,14.60
2023-05-17T13:22:16.955Z,14.20
2023-05-17T13:24:46.155Z,14.10
2023-05-17T13:27:14.526Z,14.30
2023-05-17T13:29:45.158Z,14.50
2023-05-17T13:32:14.277Z,14.60
2023-05-17T13:34:42.714Z,14.50
2023-05-17T13:37:12.346Z,14.40
2023-05-17T13:39:41.792Z,14.20
2023-05-17T13:42:10.586Z,14.20
2023-05-17T13:44:39.058Z,14.00
2023-05-17T13:47:08.932Z,14.10
2023-05-17T13:49:37.197Z,14.20
2023-05-17T13:52:08.459Z,14.40
2023-05-17T13:54:37.289Z,14.50
2023-05-17T13:57:06.525Z,14.70
2023-05-17T13:59:34.869Z,14.80
2023-05-17T14:02:04.162Z,14.70
2023-05-17T14:04:33.614Z,14.60
2023-05-17T14:07:01.776Z,14.50
2023-05-17T14:09:32.883Z,14.50
2023-05-17T14:12:01.483Z,14.50
2023-05-17T14:14:29.578Z,14.50
2023-05-17T14:16:57.712Z,14.30
2023-05-17T14:19:25.886Z,14.20
2023-05-17T14:21:55.912Z,14.30
2023-05-17T14:24:23.881Z,14.30
2023-05-17T14:26:51.812Z,14.50
2023-05-17T14:29:19.799Z,14.70
2023-05-17T14:31:48.003Z,14.80
2023-05-17T14:34:16.171Z,14.80
2023-05-17T14:36:44.222Z,14.80
2023-05-17T14:39:13.551Z,14.70
2023-05-17T14:41:42.858Z,14.70
2023-05-17T14:44:12.728Z,14.60
2023-05-17T14:46:41.071Z,14.20
2023-05-17T14:49:09.089Z,14.50
2023-05-17T14:51:37.173Z,14.50
2023-05-17T14:54:05.887Z,14.50
2023-05-17T14:56:35.199Z,14.60
2023-05-17T14:59:03.580Z,14.80
2023-05-17T15:01:31.917Z,14.80
2023-05-17T15:04:00.057Z,14.70
2023-05-17T15:06:28.090Z,14.60
2023-05-17T15:08:56.073Z,14.50
2023-05-17T15:11:24.085Z,14.50
2023-05-17T15:13:53.579Z,14.60
2023-05-17T15:16:22.007Z,14.70
2023-05-17T15:18:50.204Z,14.70
2023-05-17T15:21:18.984Z,14.80
2023-05-17T15:23:48.430Z,14.70
2023-05-17T15:26:16.345Z,14.60
2023-05-17T15:28:44.881Z,14.50
2023-05-17T15:31:14.392Z,14.40
2023-05-17T15:33:43.235Z,14.40
2023-05-17T15:36:13.270Z,14.40
2023-05-17T15:38:41.229Z,14.40
2023-05-17T15:41:14.141Z,14.40
2023-05-17T15:43:43.085Z,14.40
2023-05-17T15:46:11.739Z,14.40
2023-05-17T15:48:41.454Z,14.30
2023-05-17T15:51:10.092Z,14.10
2023-05-17T15:53:38.466Z,14.20
2023-05-17T15:56:07.238Z,14.20
2023-05-17T15:58:35.561Z,14.10
2023-05-17T16:01:05.071Z,14.20
2023-05-17T16:03:33.472Z,14.20
2023-05-17T16:06:04.434Z,14.20
2023-05-17T16:08:32.990Z,14.10
2023-05-17T16:11:02.528Z,14.00
2023-05-17T16:13:33.788Z,14.00
2023-05-17T16:16:01.795Z,14.00
2023-05-17T16:18:31.165Z,13.90
2023-05-17T16:21:02.770Z,13.80
2023-05-17T16:23:31.259Z,13.80
2023-05-17T16:25:59.303Z,13.70
2023-05-17T16:28:27.438Z,13.70
2023-05-17T16:30:55.488Z,13.70
2023-05-17T16:33:23.540Z,13.70
2023-05-17T16:35:51.969Z,13.60
2023-05-17T16:38:21.665Z,13.60
2023-05-17T16:40:49.699Z,13.60
2023-05-17T16:43:17.610Z,13.60
2023-05-17T16:45:46.347Z,13.60
2023-05-17T16:48:15.030Z,13.50
2023-05-17T16:50:43.458Z,13.50
2023-05-17T16:53:11.936Z,13.30
2023-05-17T16:55:42.093Z,13.30
2023-05-17T16:58:10.289Z,13.20
2023-05-17T17:00:38.512Z,13.20
2023-05-17T17:03:09.231Z,13.10
2023-05-17T17:05:37.971Z,13.10
2023-05-17T17:08:06.043Z,13.10
2023-05-17T17:10:35.866Z,13.10
2023-05-17T17:13:05.382Z,13.00
2023-05-17T17:15:33.334Z,13.00
2023-05-17T17:18:01.718Z,12.90
2023-05-17T17:20:30.226Z,12.80
2023-05-17T17:22:58.356Z,12.80
2023-05-17T17:25:26.275Z,12.80
2023-05-17T17:27:54.199Z,12.70
2023-05-17T17:30:24.089Z,12.70
2023-05-17T17:32:52.250Z,12.70
2023-05-17T17:35:20.522Z,12.70
2023-05-17T17:37:48.457Z,12.60
2023-05-17T17:40:16.564Z,12.50
2023-05-17T17:42:44.808Z,12.50
2023-05-17T17:45:12.938Z,12.40
2023-05-17T17:47:42.340Z,12.40
2023-05-17T17:50:11.395Z,12.40
2023-05-17T17:52:39.368Z,12.40
2023-05-17T17:55:10.761Z,12.30
2023-05-17T17:57:38.698Z,12.30
2023-05-17T18:00:10.920Z,12.20
2023-05-17T18:02:42.130Z,12.10
2023-05-17T18:05:11.961Z,12.00
2023-05-17T18:07:39.988Z,12.00
2023-05-17T18:10:09.126Z,11.90
2023-05-17T18:12:37.307Z,11.90
2023-05-17T18:15:06.194Z,11.80
2023-05-17T18:17:34.354Z,11.80
2023-05-17T18:20:03.898Z,11.70
2023-05-17T18:22:31.836Z,11.60
2023-05-17T18:24:59.935Z,11.60
2023-05-17T18:27:27.890Z,11.50
2023-05-17T18:29:56.164Z,11.40
2023-05-17T18:32:24.594Z,11.40
2023-05-17T18:34:52.817Z,11.30
2023-05-17T18:37:22.368Z,11.20
2023-05-17T18:39:50.361Z,11.10
2023-05-17T18:42:22.087Z,11.10
2023-05-17T18:44:50.182Z,11.00
2023-05-17T18:47:18.285Z,10.90
2023-05-17T18:49:46.987Z,10.90
2023-05-17T18:52:15.018Z,10.80
2023-05-17T18:54:44.498Z,10.80
2023-05-17T18:57:13.999Z,10.70
2023-05-17T18:59:42.305Z,10.70
2023-05-17T19:02:10.279Z,10.60
2023-05-17T19:04:38.255Z,10.60
2023-05-17T19:07:06.719Z,10.60
2023-05-17T19:09:35.019Z,10.40
2023-05-17T19:12:05.707Z,10.40
2023-05-17T19:14:33.679Z,10.40
2023-05-17T19:17:01.661Z,10.30
2023-05-17T19:19:31.104Z,10.30
2023-05-17T19:22:00.596Z,10.30
2023-05-17T19:24:29.360Z,10.20
2023-05-17T19:26:57.290Z,10.10
2023-05-17T19:29:28.288Z,10.10
2023-05-17T19:31:56.359Z,10.00
2023-05-17T19:34:24.374Z,10.00
2023-05-17T19:36:52.301Z,9.90
2023-05-17T19:39:23.000Z,9.90
2023-05-17T19:41:51.250Z,9.90
2023-05-17T19:44:19.223Z,9.90
2023-05-17T19:46:48.475Z,9.90
2023-05-17T19:49:16.837Z,9.80
2023-05-17T19:51:46.044Z,9.80
2023-05-17T19:54:14.085Z,9.80
2023-05-17T19:56:42.008Z,9.80
2023-05-17T19:59:09.930Z,9.80
2023-05-17T20:01:38.301Z,9.80
2023-05-17T20:04:08.063Z,9.70
2023-05-17T20:06:36.233Z,9.70
2023-05-17T20:09:05.360Z,9.70
2023-05-17T20:11:33.459Z,9.70
2023-05-17T20:14:01.381Z,9.70
2023-05-17T20:16:30.750Z,9.70
2023-05-17T20:18:59.095Z,9.70
2023-05-17T20:21:28.606Z,9.70
2023-05-17T20:24:01.441Z,9.70
2023-05-17T20:26:32.093Z,9.70
2023-05-17T20:29:00.164Z,9.60
2023-05-17T20:31:28.842Z,9.60
2023-05-17T20:33:56.817Z,9.60
2023-05-17T20:36:26.150Z,9.60
2023-05-17T20:38:55.634Z,9.60
2023-05-17T20:41:24.315Z,9.60
2023-05-17T20:43:52.531Z,9.50
2023-05-17T20:46:20.707Z,9.50
2023-05-17T20:48:49.836Z,9.50
2023-05-17T20:51:19.561Z,9.50
2023-05-17T20:53:47.810Z,9.50
2023-05-17T20:56:19.172Z,9.50
2023-05-17T20:58:47.433Z,9.50
2023-05-17T21:01:15.667Z,9.50
2023-05-17T21:03:44.395Z,9.50
2023-05-17T21:06:13.018Z,9.50
2023-05-17T21:08:41.891Z,9.40
2023-05-17T21:11:10.031Z,9.40
2023-05-17T21:13:39.416Z,9.40
2023-05-17T21:16:08.137Z,9.40
2023-05-17T21:18:36.118Z,9.50
2023-05-17T21:21:04.324Z,9.50
2023-05-17T21:23:32.312Z,9.50
2023-05-17T21:26:00.364Z,9.50
2023-05-17T21:28:29.893Z,9.50
2023-05-17T21:30:59.302Z,9.50
2023-05-17T21:33:28.559Z,9.50
2023-05-17T21:35:56.750Z,9.50
2023-05-17T21:38:24.734Z,9.50
2023-05-17T21:40:53.034Z,9.40
2023-05-17T21:43:20.974Z,9.40
2023-05-17T21:45:48.905Z,9.40
2023-05-17T21:48:18.317Z,9.40
2023-05-17T21:50:46.757Z,9.40
2023-05-17T21:53:14.809Z,9.40
2023-05-17T21:58:16.189Z,9.40
2023-05-17T22:00:44.148Z,9.50
2023-05-17T22:03:12.340Z,9.40
2023-05-17T22:05:41.721Z,9.50
2023-05-17T22:08:09.693Z,9.50
2023-05-17T22:10:37.699Z,9.50
2023-05-17T22:13:08.053Z,9.50
2023-05-17T22:15:36.645Z,9.50
2023-05-17T22:18:05.197Z,9.40
2023-05-17T22:20:33.393Z,9.40
2023-05-17T22:23:03.078Z,9.40
2023-05-17T22:25:31.472Z,9.30
2023-05-17T22:27:59.494Z,9.30
2023-05-17T22:30:27.498Z,9.30
2023-05-17T22:32:57.293Z,9.30
2023-05-17T22:35:25.625Z,9.10
2023-05-17T22:37:53.748Z,9.20
2023-05-17T22:40:23.204Z,9.00
2023-05-17T22:42:51.941Z,8.90
2023-05-17T22:45:19.965Z,8.90
2023-05-17T22:47:48.084Z,8.80
2023-05-17T22:50:16.057Z,8.70
2023-05-17T22:52:46.076Z,8.60
2023-05-17T22:55:14.010Z,8.50
2023-05-17T22:57:43.491Z,8.40
2023-05-17T23:00:13.511Z,8.30
2023-05-17T23:02:41.492Z,8.20
2023-05-17T23:05:11.112Z,8.10
2023-05-17T23:07:41.204Z,8.00
2023-05-17T23:10:11.720Z,8.00
2023-05-17T23:12:40.236Z,7.90
2023-05-17T23:15:11.454Z,7.80
2023-05-17T23:17:39.793Z,7.80
2023-05-17T23:20:12.253Z,7.80
2023-05-17T23:22:40.761Z,7.70
2023-05-17T23:25:09.781Z,7.60
2023-05-17T23:27:37.822Z,7.70
2023-05-17T23:30:07.475Z,7.60
2023-05-17T23:32:36.930Z,7.60
2023-05-17T23:35:05.674Z,7.70
2023-05-17T23:37:34.581Z,7.60
2023-05-17T23:40:04.968Z,7.50
2023-05-17T23:42:35.948Z,7.50
2023-05-17T23:45:04.620Z,7.50
2023-05-17T23:47:33.807Z,7.40
2023-05-17T23:50:03.856Z,7.40
2023-05-17T23:52:32.552Z,7.40
2023-05-17T23:55:01.513Z,7.30
2023-05-17T23:57:29.561Z,7.30
2023-05-17T23:59:57.510Z,7.20
